sensor_id;sensor_type;location;lat;lon;timestamp;P1;durP1;ratioP1;P2;durP2;ratioP2
30553;SDS011;17335;50.720;7.452;2022-09-30T00:01:04;6.97;;;2.80;;
30553;SDS011;17335;50.720;7.452;2022-09-30T00:03:31;6.07;;;3.10;;
30553;SDS011;17335;50.720;7.452;2022-09-30T00:05:58;6.43;;;2.90;;
30553;SDS011;17335;50.720;7.452;2022-09-30T00:08:33;6.05;;;3.20;;
30553;SDS011;17335;50.720;7.452;2022-09-30T00:11:01;5.82;;;3.35;;
30553;SDS011;17335;50.720;7.452;2022-09-30T00:13:36;10.20;;;3.63;;
30553;SDS011;17335;50.720;7.452;2022-09-30T00:16:04;5.28;;;3.22;;
30553;SDS011;17335;50.720;7.452;2022-09-30T00:18:31;6.75;;;3.50;;
30553;SDS011;17335;50.720;7.452;2022-09-30T00:20:58;10.23;;;3.05;;
30553;SDS011;17335;50.720;7.452;2022-09-30T00:23:25;7.68;;;3.40;;
30553;SDS011;17335;50.720;7.452;2022-09-30T00:25:56;9.43;;;3.53;;
30553;SDS011;17335;50.720;7.452;2022-09-30T00:28:24;11.38;;;4.25;;
30553;SDS011;17335;50.720;7.452;2022-09-30T00:30:52;8.73;;;4.20;;
30553;SDS011;17335;50.720;7.452;2022-09-30T00:33:20;11.90;;;4.50;;
30553;SDS011;17335;50.720;7.452;2022-09-30T00:35:46;6.93;;;3.63;;
30553;SDS011;17335;50.720;7.452;2022-09-30T00:38:13;8.63;;;4.03;;
30553;SDS011;17335;50.720;7.452;2022-09-30T00:40:39;5.60;;;3.40;;
30553;SDS011;17335;50.720;7.452;2022-09-30T00:43:18;6.95;;;3.65;;
30553;SDS011;17335;50.720;7.452;2022-09-30T00:46:10;8.60;;;3.72;;
30553;SDS011;17335;50.720;7.452;2022-09-30T00:48:44;6.43;;;3.80;;
30553;SDS011;17335;50.720;7.452;2022-09-30T00:51:27;8.48;;;4.28;;
30553;SDS011;17335;50.720;7.452;2022-09-30T00:54:02;9.68;;;5.22;;
30553;SDS011;17335;50.720;7.452;2022-09-30T00:59:06;9.45;;;4.03;;
30553;SDS011;17335;50.720;7.452;2022-09-30T01:01:36;7.78;;;4.25;;
30553;SDS011;17335;50.720;7.452;2022-09-30T01:04:08;8.73;;;4.47;;
30553;SDS011;17335;50.720;7.452;2022-09-30T01:06:37;6.75;;;4.20;;
30553;SDS011;17335;50.720;7.452;2022-09-30T01:09:05;18.88;;;7.25;;
30553;SDS011;17335;50.720;7.452;2022-09-30T01:11:32;16.92;;;7.05;;
30553;SDS011;17335;50.720;7.452;2022-09-30T01:14:00;15.20;;;4.68;;
30553;SDS011;17335;50.720;7.452;2022-09-30T01:16:38;9.60;;;4.63;;
30553;SDS011;17335;50.720;7.452;2022-09-30T01:19:14;9.85;;;4.65;;
30553;SDS011;17335;50.720;7.452;2022-09-30T01:22:14;17.85;;;7.25;;
30553;SDS011;17335;50.720;7.452;2022-09-30T01:33:55;13.05;;;5.55;;
30553;SDS011;17335;50.720;7.452;2022-09-30T01:47:29;15.02;;;6.05;;
30553;SDS011;17335;50.720;7.452;2022-09-30T01:50:20;13.00;;;6.10;;
30553;SDS011;17335;50.720;7.452;2022-09-30T01:55:37;14.75;;;6.65;;
30553;SDS011;17335;50.720;7.452;2022-09-30T01:58:18;16.20;;;6.95;;
30553;SDS011;17335;50.720;7.452;2022-09-30T02:04:35;18.38;;;8.32;;
30553;SDS011;17335;50.720;7.452;2022-09-30T02:07:09;17.77;;;7.15;;
30553;SDS011;17335;50.720;7.452;2022-09-30T02:09:44;13.77;;;7.07;;
30553;SDS011;17335;50.720;7.452;2022-09-30T02:12:18;15.13;;;6.82;;
30553;SDS011;17335;50.720;7.452;2022-09-30T02:14:48;16.35;;;6.07;;
30553;SDS011;17335;50.720;7.452;2022-09-30T02:17:20;9.55;;;5.40;;
30553;SDS011;17335;50.720;7.452;2022-09-30T02:19:51;15.35;;;5.22;;
30553;SDS011;17335;50.720;7.452;2022-09-30T02:22:25;11.20;;;6.43;;
30553;SDS011;17335;50.720;7.452;2022-09-30T02:24:58;12.95;;;5.97;;
30553;SDS011;17335;50.720;7.452;2022-09-30T02:27:31;12.15;;;6.32;;
30553;SDS011;17335;50.720;7.452;2022-09-30T02:30:02;8.50;;;4.85;;
30553;SDS011;17335;50.720;7.452;2022-09-30T02:32:30;9.93;;;5.57;;
30553;SDS011;17335;50.720;7.452;2022-09-30T02:35:02;9.27;;;4.88;;
30553;SDS011;17335;50.720;7.452;2022-09-30T02:37:34;8.70;;;4.65;;
30553;SDS011;17335;50.720;7.452;2022-09-30T02:40:16;10.73;;;4.55;;
30553;SDS011;17335;50.720;7.452;2022-09-30T02:42:46;9.15;;;4.97;;
30553;SDS011;17335;50.720;7.452;2022-09-30T02:45:15;8.98;;;5.25;;
30553;SDS011;17335;50.720;7.452;2022-09-30T02:50:33;11.20;;;5.00;;
30553;SDS011;17335;50.720;7.452;2022-09-30T02:58:44;7.93;;;4.18;;
30553;SDS011;17335;50.720;7.452;2022-09-30T03:01:12;6.85;;;4.35;;
30553;SDS011;17335;50.720;7.452;2022-09-30T03:03:50;9.05;;;4.90;;
30553;SDS011;17335;50.720;7.452;2022-09-30T03:06:20;8.10;;;4.20;;
30553;SDS011;17335;50.720;7.452;2022-09-30T03:08:46;6.72;;;4.13;;
30553;SDS011;17335;50.720;7.452;2022-09-30T03:11:14;8.05;;;4.28;;
30553;SDS011;17335;50.720;7.452;2022-09-30T03:14:01;7.25;;;3.92;;
30553;SDS011;17335;50.720;7.452;2022-09-30T03:16:54;10.10;;;4.47;;
30553;SDS011;17335;50.720;7.452;2022-09-30T03:24:58;6.75;;;4.07;;
30553;SDS011;17335;50.720;7.452;2022-09-30T03:30:31;6.75;;;3.92;;
30553;SDS011;17335;50.720;7.452;2022-09-30T03:33:07;7.95;;;3.45;;
30553;SDS011;17335;50.720;7.452;2022-09-30T03:38:35;7.28;;;4.30;;
30553;SDS011;17335;50.720;7.452;2022-09-30T03:43:56;8.10;;;4.00;;
30553;SDS011;17335;50.720;7.452;2022-09-30T03:46:35;8.02;;;3.90;;
30553;SDS011;17335;50.720;7.452;2022-09-30T03:49:09;7.13;;;3.88;;
30553;SDS011;17335;50.720;7.452;2022-09-30T03:51:40;8.40;;;3.97;;
30553;SDS011;17335;50.720;7.452;2022-09-30T03:54:08;11.30;;;3.70;;
30553;SDS011;17335;50.720;7.452;2022-09-30T03:56:37;8.30;;;4.03;;
30553;SDS011;17335;50.720;7.452;2022-09-30T03:59:15;7.70;;;4.05;;
30553;SDS011;17335;50.720;7.452;2022-09-30T04:01:49;8.93;;;4.00;;
30553;SDS011;17335;50.720;7.452;2022-09-30T04:04:16;8.40;;;4.05;;
30553;SDS011;17335;50.720;7.452;2022-09-30T04:06:43;8.75;;;4.20;;
30553;SDS011;17335;50.720;7.452;2022-09-30T04:09:09;8.75;;;4.05;;
30553;SDS011;17335;50.720;7.452;2022-09-30T04:11:36;6.43;;;3.70;;
30553;SDS011;17335;50.720;7.452;2022-09-30T04:14:05;7.53;;;3.90;;
30553;SDS011;17335;50.720;7.452;2022-09-30T04:16:31;7.57;;;4.20;;
30553;SDS011;17335;50.720;7.452;2022-09-30T04:18:59;7.82;;;3.90;;
30553;SDS011;17335;50.720;7.452;2022-09-30T04:21:26;7.10;;;4.20;;
30553;SDS011;17335;50.720;7.452;2022-09-30T04:23:56;7.63;;;3.92;;
30553;SDS011;17335;50.720;7.452;2022-09-30T04:26:22;10.27;;;5.63;;
30553;SDS011;17335;50.720;7.452;2022-09-30T04:28:49;13.40;;;7.50;;
30553;SDS011;17335;50.720;7.452;2022-09-30T04:31:16;20.70;;;9.10;;
30553;SDS011;17335;50.720;7.452;2022-09-30T04:33:44;16.08;;;8.07;;
30553;SDS011;17335;50.720;7.452;2022-09-30T04:36:11;17.05;;;7.90;;
30553;SDS011;17335;50.720;7.452;2022-09-30T04:38:37;14.85;;;7.82;;
30553;SDS011;17335;50.720;7.452;2022-09-30T04:41:05;12.07;;;5.97;;
30553;SDS011;17335;50.720;7.452;2022-09-30T04:43:32;10.13;;;5.28;;
30553;SDS011;17335;50.720;7.452;2022-09-30T04:45:59;7.25;;;4.07;;
30553;SDS011;17335;50.720;7.452;2022-09-30T04:48:26;8.70;;;4.75;;
30553;SDS011;17335;50.720;7.452;2022-09-30T04:50:57;5.63;;;3.20;;
30553;SDS011;17335;50.720;7.452;2022-09-30T04:53:25;7.07;;;3.30;;
30553;SDS011;17335;50.720;7.452;2022-09-30T04:55:56;6.32;;;3.42;;
30553;SDS011;17335;50.720;7.452;2022-09-30T04:58:24;9.85;;;3.85;;
30553;SDS011;17335;50.720;7.452;2022-09-30T05:00:51;8.00;;;4.15;;
30553;SDS011;17335;50.720;7.452;2022-09-30T05:03:25;11.50;;;4.95;;
30553;SDS011;17335;50.720;7.452;2022-09-30T05:05:52;14.32;;;5.05;;
30553;SDS011;17335;50.720;7.452;2022-09-30T05:08:18;12.73;;;7.20;;
30553;SDS011;17335;50.720;7.452;2022-09-30T05:10:51;17.80;;;7.80;;
30553;SDS011;17335;50.720;7.452;2022-09-30T05:13:23;13.52;;;6.28;;
30553;SDS011;17335;50.720;7.452;2022-09-30T05:15:51;13.98;;;5.80;;
30553;SDS011;17335;50.720;7.452;2022-09-30T05:18:19;12.60;;;6.07;;
30553;SDS011;17335;50.720;7.452;2022-09-30T05:20:49;10.35;;;5.45;;
30553;SDS011;17335;50.720;7.452;2022-09-30T05:23:16;9.32;;;4.70;;
30553;SDS011;17335;50.720;7.452;2022-09-30T05:25:44;8.88;;;4.93;;
30553;SDS011;17335;50.720;7.452;2022-09-30T05:28:11;10.27;;;6.22;;
30553;SDS011;17335;50.720;7.452;2022-09-30T05:30:39;24.35;;;10.75;;
30553;SDS011;17335;50.720;7.452;2022-09-30T05:33:07;24.17;;;12.65;;
30553;SDS011;17335;50.720;7.452;2022-09-30T05:35:33;43.42;;;20.67;;
30553;SDS011;17335;50.720;7.452;2022-09-30T05:38:00;41.47;;;20.30;;
30553;SDS011;17335;50.720;7.452;2022-09-30T05:40:29;33.63;;;15.55;;
30553;SDS011;17335;50.720;7.452;2022-09-30T05:42:57;22.52;;;11.57;;
30553;SDS011;17335;50.720;7.452;2022-09-30T05:45:24;17.50;;;8.80;;
30553;SDS011;17335;50.720;7.452;2022-09-30T05:47:55;13.95;;;7.68;;
30553;SDS011;17335;50.720;7.452;2022-09-30T05:50:23;13.95;;;7.45;;
30553;SDS011;17335;50.720;7.452;2022-09-30T05:52:50;11.20;;;5.43;;
30553;SDS011;17335;50.720;7.452;2022-09-30T05:55:18;9.82;;;5.45;;
30553;SDS011;17335;50.720;7.452;2022-09-30T05:57:47;11.43;;;6.53;;
30553;SDS011;17335;50.720;7.452;2022-09-30T06:00:15;12.48;;;6.85;;
30553;SDS011;17335;50.720;7.452;2022-09-30T06:02:42;11.23;;;6.35;;
30553;SDS011;17335;50.720;7.452;2022-09-30T06:05:10;11.55;;;6.10;;
30553;SDS011;17335;50.720;7.452;2022-09-30T06:07:37;16.60;;;6.95;;
30553;SDS011;17335;50.720;7.452;2022-09-30T06:10:05;12.88;;;6.82;;
30553;SDS011;17335;50.720;7.452;2022-09-30T06:12:37;10.30;;;5.65;;
30553;SDS011;17335;50.720;7.452;2022-09-30T06:15:04;11.32;;;3.97;;
30553;SDS011;17335;50.720;7.452;2022-09-30T06:17:32;7.63;;;4.03;;
30553;SDS011;17335;50.720;7.452;2022-09-30T06:19:58;8.63;;;4.38;;
30553;SDS011;17335;50.720;7.452;2022-09-30T06:22:26;8.77;;;4.50;;
30553;SDS011;17335;50.720;7.452;2022-09-30T06:24:52;7.25;;;4.47;;
30553;SDS011;17335;50.720;7.452;2022-09-30T06:27:20;9.77;;;4.45;;
30553;SDS011;17335;50.720;7.452;2022-09-30T06:29:47;11.30;;;6.28;;
30553;SDS011;17335;50.720;7.452;2022-09-30T06:32:14;10.30;;;6.35;;
30553;SDS011;17335;50.720;7.452;2022-09-30T06:34:41;10.45;;;5.68;;
30553;SDS011;17335;50.720;7.452;2022-09-30T06:37:07;10.55;;;6.00;;
30553;SDS011;17335;50.720;7.452;2022-09-30T06:39:34;12.32;;;6.07;;
30553;SDS011;17335;50.720;7.452;2022-09-30T06:42:00;9.30;;;5.53;;
30553;SDS011;17335;50.720;7.452;2022-09-30T06:44:27;10.05;;;5.80;;
30553;SDS011;17335;50.720;7.452;2022-09-30T06:46:53;11.02;;;5.68;;
30553;SDS011;17335;50.720;7.452;2022-09-30T06:49:20;10.82;;;5.53;;
30553;SDS011;17335;50.720;7.452;2022-09-30T06:51:47;9.52;;;5.70;;
30553;SDS011;17335;50.720;7.452;2022-09-30T06:54:16;12.25;;;5.63;;
30553;SDS011;17335;50.720;7.452;2022-09-30T06:56:46;10.18;;;5.85;;
30553;SDS011;17335;50.720;7.452;2022-09-30T06:59:13;11.68;;;5.95;;
30553;SDS011;17335;50.720;7.452;2022-09-30T07:01:43;10.25;;;5.88;;
30553;SDS011;17335;50.720;7.452;2022-09-30T07:04:10;13.82;;;6.22;;
30553;SDS011;17335;50.720;7.452;2022-09-30T07:06:38;12.25;;;5.68;;
30553;SDS011;17335;50.720;7.452;2022-09-30T07:09:05;10.98;;;5.90;;
30553;SDS011;17335;50.720;7.452;2022-09-30T07:11:33;10.80;;;6.10;;
30553;SDS011;17335;50.720;7.452;2022-09-30T07:13:59;10.95;;;5.65;;
30553;SDS011;17335;50.720;7.452;2022-09-30T07:16:26;10.63;;;5.28;;
30553;SDS011;17335;50.720;7.452;2022-09-30T07:18:53;15.38;;;6.07;;
30553;SDS011;17335;50.720;7.452;2022-09-30T07:21:19;9.50;;;5.65;;
30553;SDS011;17335;50.720;7.452;2022-09-30T07:23:46;9.93;;;5.53;;
30553;SDS011;17335;50.720;7.452;2022-09-30T07:26:17;9.80;;;5.63;;
30553;SDS011;17335;50.720;7.452;2022-09-30T07:28:45;9.55;;;6.20;;
30553;SDS011;17335;50.720;7.452;2022-09-30T07:31:13;14.43;;;6.22;;
30553;SDS011;17335;50.720;7.452;2022-09-30T07:34:01;9.52;;;5.88;;
30553;SDS011;17335;50.720;7.452;2022-09-30T07:36:35;11.70;;;6.07;;
30553;SDS011;17335;50.720;7.452;2022-09-30T07:39:04;16.08;;;6.43;;
30553;SDS011;17335;50.720;7.452;2022-09-30T07:41:34;12.82;;;6.80;;
30553;SDS011;17335;50.720;7.452;2022-09-30T07:44:04;11.50;;;6.50;;
30553;SDS011;17335;50.720;7.452;2022-09-30T07:46:32;18.58;;;7.22;;
30553;SDS011;17335;50.720;7.452;2022-09-30T07:49:00;13.68;;;6.97;;
30553;SDS011;17335;50.720;7.452;2022-09-30T07:51:30;14.80;;;6.60;;
30553;SDS011;17335;50.720;7.452;2022-09-30T07:54:00;12.38;;;6.95;;
30553;SDS011;17335;50.720;7.452;2022-09-30T07:56:31;15.57;;;7.93;;
30553;SDS011;17335;50.720;7.452;2022-09-30T07:59:18;14.85;;;7.15;;
30553;SDS011;17335;50.720;7.452;2022-09-30T08:01:45;16.63;;;7.20;;
30553;SDS011;17335;50.720;7.452;2022-09-30T08:04:13;11.75;;;6.95;;
30553;SDS011;17335;50.720;7.452;2022-09-30T08:06:41;12.98;;;6.60;;
30553;SDS011;17335;50.720;7.452;2022-09-30T08:09:11;13.52;;;6.75;;
30553;SDS011;17335;50.720;7.452;2022-09-30T08:11:40;14.57;;;7.22;;
30553;SDS011;17335;50.720;7.452;2022-09-30T08:14:12;12.25;;;6.72;;
30553;SDS011;17335;50.720;7.452;2022-09-30T08:16:39;12.93;;;7.40;;
30553;SDS011;17335;50.720;7.452;2022-09-30T08:19:06;12.00;;;7.10;;
30553;SDS011;17335;50.720;7.452;2022-09-30T08:21:33;14.90;;;7.65;;
30553;SDS011;17335;50.720;7.452;2022-09-30T08:23:59;11.85;;;7.18;;
30553;SDS011;17335;50.720;7.452;2022-09-30T08:26:28;15.25;;;8.00;;
30553;SDS011;17335;50.720;7.452;2022-09-30T08:28:55;15.10;;;7.40;;
30553;SDS011;17335;50.720;7.452;2022-09-30T08:31:22;13.30;;;8.23;;
30553;SDS011;17335;50.720;7.452;2022-09-30T08:33:49;14.98;;;8.25;;
30553;SDS011;17335;50.720;7.452;2022-09-30T08:36:18;15.65;;;8.60;;
30553;SDS011;17335;50.720;7.452;2022-09-30T08:38:46;18.13;;;8.02;;
30553;SDS011;17335;50.720;7.452;2022-09-30T08:52:20;13.30;;;7.35;;
30553;SDS011;17335;50.720;7.452;2022-09-30T08:55:14;11.60;;;6.65;;
30553;SDS011;17335;50.720;7.452;2022-09-30T08:57:45;13.48;;;6.25;;
30553;SDS011;17335;50.720;7.452;2022-09-30T09:00:14;10.18;;;5.88;;
30553;SDS011;17335;50.720;7.452;2022-09-30T09:02:44;13.80;;;7.05;;
30553;SDS011;17335;50.720;7.452;2022-09-30T09:05:21;12.63;;;6.05;;
30553;SDS011;17335;50.720;7.452;2022-09-30T09:10:45;12.15;;;6.03;;
30553;SDS011;17335;50.720;7.452;2022-09-30T09:13:33;11.93;;;5.90;;
30553;SDS011;17335;50.720;7.452;2022-09-30T09:19:02;11.27;;;5.43;;
30553;SDS011;17335;50.720;7.452;2022-09-30T09:21:52;10.68;;;4.90;;
30553;SDS011;17335;50.720;7.452;2022-09-30T09:24:23;8.20;;;4.07;;
30553;SDS011;17335;50.720;7.452;2022-09-30T09:26:55;9.98;;;3.70;;
30553;SDS011;17335;50.720;7.452;2022-09-30T09:29:36;9.13;;;4.25;;
30553;SDS011;17335;50.720;7.452;2022-09-30T09:32:10;7.95;;;3.95;;
30553;SDS011;17335;50.720;7.452;2022-09-30T09:34:39;8.00;;;3.75;;
30553;SDS011;17335;50.720;7.452;2022-09-30T09:40:31;12.18;;;4.47;;
30553;SDS011;17335;50.720;7.452;2022-09-30T09:43:18;7.07;;;3.92;;
30553;SDS011;17335;50.720;7.452;2022-09-30T09:45:59;6.88;;;3.10;;
30553;SDS011;17335;50.720;7.452;2022-09-30T09:48:32;6.40;;;3.83;;
30553;SDS011;17335;50.720;7.452;2022-09-30T09:51:02;6.65;;;3.17;;
30553;SDS011;17335;50.720;7.452;2022-09-30T09:53:43;6.35;;;3.35;;
30553;SDS011;17335;50.720;7.452;2022-09-30T09:56:15;10.40;;;3.53;;
30553;SDS011;17335;50.720;7.452;2022-09-30T09:59:03;5.40;;;3.15;;
30553;SDS011;17335;50.720;7.452;2022-09-30T10:01:47;8.77;;;3.55;;
30553;SDS011;17335;50.720;7.452;2022-09-30T10:09:24;5.18;;;3.20;;
30553;SDS011;17335;50.720;7.452;2022-09-30T10:14:31;7.20;;;3.88;;
30553;SDS011;17335;50.720;7.452;2022-09-30T10:16:59;6.53;;;2.80;;
30553;SDS011;17335;50.720;7.452;2022-09-30T10:19:27;4.78;;;2.88;;
30553;SDS011;17335;50.720;7.452;2022-09-30T10:24:35;4.80;;;2.83;;
30553;SDS011;17335;50.720;7.452;2022-09-30T10:27:18;7.22;;;2.60;;
30553;SDS011;17335;50.720;7.452;2022-09-30T10:29:55;6.32;;;3.13;;
30553;SDS011;17335;50.720;7.452;2022-09-30T10:32:21;5.68;;;2.75;;
30553;SDS011;17335;50.720;7.452;2022-09-30T10:34:54;4.53;;;2.45;;
30553;SDS011;17335;50.720;7.452;2022-09-30T10:37:25;7.22;;;3.80;;
30553;SDS011;17335;50.720;7.452;2022-09-30T10:39:59;4.80;;;2.60;;
30553;SDS011;17335;50.720;7.452;2022-09-30T10:42:29;9.00;;;2.63;;
30553;SDS011;17335;50.720;7.452;2022-09-30T10:45:01;6.20;;;2.45;;
30553;SDS011;17335;50.720;7.452;2022-09-30T10:47:31;4.30;;;2.35;;
30553;SDS011;17335;50.720;7.452;2022-09-30T10:50:06;4.47;;;2.08;;
30553;SDS011;17335;50.720;7.452;2022-09-30T10:57:50;4.00;;;1.92;;
30553;SDS011;17335;50.720;7.452;2022-09-30T11:00:19;3.70;;;1.85;;
30553;SDS011;17335;50.720;7.452;2022-09-30T11:02:51;3.60;;;1.75;;
30553;SDS011;17335;50.720;7.452;2022-09-30T11:10:30;9.13;;;1.60;;
30553;SDS011;17335;50.720;7.452;2022-09-30T11:15:56;5.47;;;2.03;;
30553;SDS011;17335;50.720;7.452;2022-09-30T11:21:11;3.83;;;1.90;;
30553;SDS011;17335;50.720;7.452;2022-09-30T11:23:47;2.40;;;1.30;;
30553;SDS011;17335;50.720;7.452;2022-09-30T11:39:56;5.20;;;1.73;;
30553;SDS011;17335;50.720;7.452;2022-09-30T11:42:47;3.90;;;1.40;;
30553;SDS011;17335;50.720;7.452;2022-09-30T11:57:17;4.07;;;1.00;;
30553;SDS011;17335;50.720;7.452;2022-09-30T11:59:54;2.70;;;1.00;;
30553;SDS011;17335;50.720;7.452;2022-09-30T12:02:37;4.13;;;1.30;;
30553;SDS011;17335;50.720;7.452;2022-09-30T12:05:07;3.78;;;1.30;;
30553;SDS011;17335;50.720;7.452;2022-09-30T12:07:41;5.43;;;1.50;;
30553;SDS011;17335;50.720;7.452;2022-09-30T12:10:25;2.80;;;1.30;;
30553;SDS011;17335;50.720;7.452;2022-09-30T12:12:55;4.65;;;1.77;;
30553;SDS011;17335;50.720;7.452;2022-09-30T12:15:30;2.72;;;1.50;;
30553;SDS011;17335;50.720;7.452;2022-09-30T12:18:04;2.97;;;1.20;;
30553;SDS011;17335;50.720;7.452;2022-09-30T12:23:39;4.47;;;1.30;;
30553;SDS011;17335;50.720;7.452;2022-09-30T12:26:10;4.15;;;1.35;;
30553;SDS011;17335;50.720;7.452;2022-09-30T12:34:21;4.20;;;1.50;;
30553;SDS011;17335;50.720;7.452;2022-09-30T12:42:36;5.13;;;1.30;;
30553;SDS011;17335;50.720;7.452;2022-09-30T12:47:50;5.03;;;1.50;;
30553;SDS011;17335;50.720;7.452;2022-09-30T12:50:22;2.53;;;1.27;;
30553;SDS011;17335;50.720;7.452;2022-09-30T12:52:54;1.90;;;1.27;;
30553;SDS011;17335;50.720;7.452;2022-09-30T12:55:27;2.85;;;1.23;;
30553;SDS011;17335;50.720;7.452;2022-09-30T12:58:04;2.15;;;1.15;;
30553;SDS011;17335;50.720;7.452;2022-09-30T13:00:32;2.67;;;1.40;;
30553;SDS011;17335;50.720;7.452;2022-09-30T13:03:04;4.30;;;1.60;;
30553;SDS011;17335;50.720;7.452;2022-09-30T13:10:32;2.22;;;1.58;;
30553;SDS011;17335;50.720;7.452;2022-09-30T13:15:44;5.60;;;1.67;;
30553;SDS011;17335;50.720;7.452;2022-09-30T13:28:49;3.25;;;1.55;;
30553;SDS011;17335;50.720;7.452;2022-09-30T13:31:18;5.53;;;1.88;;
30553;SDS011;17335;50.720;7.452;2022-09-30T13:41:42;4.35;;;1.60;;
30553;SDS011;17335;50.720;7.452;2022-09-30T13:46:50;4.07;;;1.60;;
30553;SDS011;17335;50.720;7.452;2022-09-30T13:52:33;7.03;;;1.50;;
30553;SDS011;17335;50.720;7.452;2022-09-30T13:55:24;5.85;;;1.50;;
30553;SDS011;17335;50.720;7.452;2022-09-30T14:00:57;4.05;;;2.05;;
30553;SDS011;17335;50.720;7.452;2022-09-30T14:03:48;2.55;;;1.30;;
30553;SDS011;17335;50.720;7.452;2022-09-30T14:06:26;3.85;;;1.40;;
30553;SDS011;17335;50.720;7.452;2022-09-30T14:15:25;3.63;;;1.45;;
30553;SDS011;17335;50.720;7.452;2022-09-30T14:23:43;2.65;;;1.50;;
30553;SDS011;17335;50.720;7.452;2022-09-30T14:29:15;2.38;;;1.20;;
30553;SDS011;17335;50.720;7.452;2022-09-30T14:31:54;1.95;;;1.20;;
30553;SDS011;17335;50.720;7.452;2022-09-30T14:34:21;2.50;;;1.30;;
30553;SDS011;17335;50.720;7.452;2022-09-30T14:36:50;2.70;;;1.30;;
30553;SDS011;17335;50.720;7.452;2022-09-30T14:39:25;6.43;;;1.35;;
30553;SDS011;17335;50.720;7.452;2022-09-30T14:41:55;2.60;;;1.10;;
30553;SDS011;17335;50.720;7.452;2022-09-30T14:44:28;2.03;;;1.05;;
30553;SDS011;17335;50.720;7.452;2022-09-30T14:46:58;1.77;;;1.20;;
30553;SDS011;17335;50.720;7.452;2022-09-30T14:49:27;2.17;;;1.20;;
30553;SDS011;17335;50.720;7.452;2022-09-30T14:51:59;4.32;;;1.65;;
30553;SDS011;17335;50.720;7.452;2022-09-30T14:54:29;1.88;;;1.00;;
30553;SDS011;17335;50.720;7.452;2022-09-30T14:56:58;3.28;;;1.30;;
30553;SDS011;17335;50.720;7.452;2022-09-30T14:59:30;2.28;;;1.23;;
30553;SDS011;17335;50.720;7.452;2022-09-30T15:01:59;2.50;;;1.23;;
30553;SDS011;17335;50.720;7.452;2022-09-30T15:04:29;3.67;;;1.40;;
30553;SDS011;17335;50.720;7.452;2022-09-30T15:07:02;2.15;;;1.20;;
30553;SDS011;17335;50.720;7.452;2022-09-30T15:09:32;1.95;;;1.02;;
30553;SDS011;17335;50.720;7.452;2022-09-30T15:12:11;1.90;;;1.23;;
30553;SDS011;17335;50.720;7.452;2022-09-30T15:14:46;3.80;;;0.98;;
30553;SDS011;17335;50.720;7.452;2022-09-30T15:17:36;2.17;;;1.10;;
30553;SDS011;17335;50.720;7.452;2022-09-30T15:23:02;2.15;;;1.00;;
30553;SDS011;17335;50.720;7.452;2022-09-30T15:25:34;1.70;;;1.10;;
30553;SDS011;17335;50.720;7.452;2022-09-30T15:28:01;2.45;;;1.27;;
30553;SDS011;17335;50.720;7.452;2022-09-30T15:30:28;2.13;;;1.00;;
30553;SDS011;17335;50.720;7.452;2022-09-30T15:32:55;1.58;;;1.00;;
30553;SDS011;17335;50.720;7.452;2022-09-30T15:35:24;1.88;;;0.98;;
30553;SDS011;17335;50.720;7.452;2022-09-30T15:37:51;1.33;;;0.90;;
30553;SDS011;17335;50.720;7.452;2022-09-30T15:40:18;3.88;;;1.08;;
30553;SDS011;17335;50.720;7.452;2022-09-30T15:43:09;2.47;;;1.20;;
30553;SDS011;17335;50.720;7.452;2022-09-30T15:45:42;2.15;;;1.00;;
30553;SDS011;17335;50.720;7.452;2022-09-30T15:50:55;5.88;;;1.40;;
30553;SDS011;17335;50.720;7.452;2022-09-30T15:53:27;1.08;;;0.70;;
30553;SDS011;17335;50.720;7.452;2022-09-30T15:55:59;1.10;;;0.80;;
30553;SDS011;17335;50.720;7.452;2022-09-30T15:58:52;1.92;;;0.98;;
30553;SDS011;17335;50.720;7.452;2022-09-30T16:09:35;2.97;;;0.80;;
30553;SDS011;17335;50.720;7.452;2022-09-30T16:12:05;1.30;;;0.80;;
30553;SDS011;17335;50.720;7.452;2022-09-30T16:17:24;4.50;;;1.20;;
30553;SDS011;17335;50.720;7.452;2022-09-30T16:19:53;2.13;;;0.80;;
30553;SDS011;17335;50.720;7.452;2022-09-30T16:22:48;1.63;;;0.93;;
30553;SDS011;17335;50.720;7.452;2022-09-30T16:27:44;1.90;;;0.95;;
30553;SDS011;17335;50.720;7.452;2022-09-30T16:30:17;1.45;;;0.98;;
30553;SDS011;17335;50.720;7.452;2022-09-30T16:32:45;1.52;;;1.02;;
30553;SDS011;17335;50.720;7.452;2022-09-30T16:35:16;2.70;;;1.00;;
30553;SDS011;17335;50.720;7.452;2022-09-30T16:37:45;1.60;;;1.08;;
30553;SDS011;17335;50.720;7.452;2022-09-30T16:40:31;4.60;;;1.00;;
30553;SDS011;17335;50.720;7.452;2022-09-30T16:43:00;2.65;;;0.98;;
30553;SDS011;17335;50.720;7.452;2022-09-30T16:45:33;2.10;;;1.08;;
30553;SDS011;17335;50.720;7.452;2022-09-30T16:48:00;3.13;;;1.30;;
30553;SDS011;17335;50.720;7.452;2022-09-30T16:50:29;3.05;;;1.30;;
30553;SDS011;17335;50.720;7.452;2022-09-30T16:53:00;2.47;;;1.58;;
30553;SDS011;17335;50.720;7.452;2022-09-30T16:55:27;4.38;;;1.70;;
30553;SDS011;17335;50.720;7.452;2022-09-30T16:57:54;3.08;;;1.90;;
30553;SDS011;17335;50.720;7.452;2022-09-30T17:00:25;6.68;;;3.95;;
30553;SDS011;17335;50.720;7.452;2022-09-30T17:02:53;12.10;;;7.85;;
30553;SDS011;17335;50.720;7.452;2022-09-30T17:05:20;6.40;;;4.30;;
30553;SDS011;17335;50.720;7.452;2022-09-30T17:07:52;6.03;;;3.20;;
30553;SDS011;17335;50.720;7.452;2022-09-30T17:10:28;2.70;;;1.60;;
30553;SDS011;17335;50.720;7.452;2022-09-30T17:12:57;7.90;;;2.40;;
30553;SDS011;17335;50.720;7.452;2022-09-30T17:15:29;3.53;;;1.92;;
30553;SDS011;17335;50.720;7.452;2022-09-30T17:17:57;4.32;;;2.17;;
30553;SDS011;17335;50.720;7.452;2022-09-30T17:20:24;2.50;;;1.50;;
30553;SDS011;17335;50.720;7.452;2022-09-30T17:22:51;2.60;;;1.38;;
30553;SDS011;17335;50.720;7.452;2022-09-30T17:25:17;4.47;;;1.80;;
30553;SDS011;17335;50.720;7.452;2022-09-30T17:27:47;3.72;;;1.80;;
30553;SDS011;17335;50.720;7.452;2022-09-30T17:30:15;2.28;;;1.45;;
30553;SDS011;17335;50.720;7.452;2022-09-30T17:32:44;4.55;;;1.73;;
30553;SDS011;17335;50.720;7.452;2022-09-30T17:35:10;4.10;;;1.70;;
30553;SDS011;17335;50.720;7.452;2022-09-30T17:37:37;3.42;;;1.65;;
30553;SDS011;17335;50.720;7.452;2022-09-30T17:40:11;3.20;;;1.55;;
30553;SDS011;17335;50.720;7.452;2022-09-30T17:42:57;3.58;;;1.90;;
30553;SDS011;17335;50.720;7.452;2022-09-30T17:45:34;3.78;;;1.70;;
30553;SDS011;17335;50.720;7.452;2022-09-30T17:48:01;2.88;;;1.50;;
30553;SDS011;17335;50.720;7.452;2022-09-30T17:50:28;4.15;;;1.77;;
30553;SDS011;17335;50.720;7.452;2022-09-30T17:52:55;3.55;;;1.67;;
30553;SDS011;17335;50.720;7.452;2022-09-30T17:55:21;5.15;;;1.80;;
30553;SDS011;17335;50.720;7.452;2022-09-30T17:57:48;10.48;;;1.95;;
30553;SDS011;17335;50.720;7.452;2022-09-30T18:00:15;2.95;;;1.65;;
30553;SDS011;17335;50.720;7.452;2022-09-30T18:02:41;2.95;;;1.48;;
30553;SDS011;17335;50.720;7.452;2022-09-30T18:05:09;4.32;;;1.70;;
30553;SDS011;17335;50.720;7.452;2022-09-30T18:07:36;2.15;;;1.27;;
30553;SDS011;17335;50.720;7.452;2022-09-30T18:10:03;6.95;;;2.00;;
30553;SDS011;17335;50.720;7.452;2022-09-30T18:12:30;3.30;;;1.60;;
30553;SDS011;17335;50.720;7.452;2022-09-30T18:14:59;3.83;;;1.50;;
30553;SDS011;17335;50.720;7.452;2022-09-30T18:17:26;2.92;;;1.48;;
30553;SDS011;17335;50.720;7.452;2022-09-30T18:19:53;3.13;;;1.67;;
30553;SDS011;17335;50.720;7.452;2022-09-30T18:22:19;4.40;;;1.70;;
30553;SDS011;17335;50.720;7.452;2022-09-30T18:24:46;2.83;;;1.52;;
30553;SDS011;17335;50.720;7.452;2022-09-30T18:27:31;3.97;;;1.90;;
30553;SDS011;17335;50.720;7.452;2022-09-30T18:29:59;3.80;;;1.85;;
30553;SDS011;17335;50.720;7.452;2022-09-30T18:32:27;4.47;;;2.00;;
30553;SDS011;17335;50.720;7.452;2022-09-30T18:34:54;5.07;;;2.03;;
30553;SDS011;17335;50.720;7.452;2022-09-30T18:37:24;2.80;;;1.80;;